x

Shelikof Strait, Ak (46077) Wave Buoy

12:50am - Mon 22nd Sep 2014 All times are AKDT. -8 hours from GMT.

  • Sig Wave height 2.0ft
  • Peak Period 6s
  • Average Period 4s
  • Wind
    7mph, 9mph gusts
  • Sea Temp 53°f
  • Air Temp 52°f
  • Sea Pressure 996.4mb
  • Shelikof  Strait, Ak
  • Shelikof  Strait, Ak

More Historic Weather Station data

Upgrade to MSW Pro to gain access to the past 30 days of data for over 8000 Wavebouys and Weather Stations around the globe.

Join Pro

Comparision Forecast

View Surf forecast
   
Mon 09/22 12:50am 2ft 6s 4s 7 9 mph 996.4mb 53f 52f
Sun 09/21 11:50pm 2ft 6s 4s 7 9 mph 996.3mb 54f 52f
10:50pm 2ft 6s 4s 4 7 mph 996.3mb 54f 53f
9:50pm 1.6ft 5s 4s 4
mph
996.3mb 54f 54f
8:50pm 1.3ft 4s 4s 7 9 mph 996.2mb 54f 54f
7:50pm 1.3ft 4s 4s 9 11 mph 996.3mb 54f 55f
6:50pm 1.3ft 7s 4s 11 13 mph 996.9mb 54f 54f
5:50pm 1.3ft 4s 4s 11 13 mph 997.6mb 54f 54f
4:50pm 1ft 8s 4s 13 16 mph 998.3mb 54f 53f
3:50pm 1.3ft 7s 6s 13 16 mph 998.8mb 55f 53f
2:50pm 1ft 7s 6s 9 11 mph 999.7mb 54f 52f
1:50pm 1ft 7s 6s 7 9 mph 1000.4mb 54f 52f
12:50pm 1ft 7s 6s 2 4 mph 1000.9mb 54f 52f
11:50am 1ft 8s 6s 2
mph
1001.5mb 54f 52f
10:50am 1ft 8s 6s 4 7 mph 1002.2mb 53f 52f
9:50am 1ft 9s 6s 4 7 mph 1002.5mb 53f 51f
8:50am 1.3ft 9s 6s 4
mph
1002.7mb 53f 52f
7:50am 1ft 8s 6s 7
mph
1002.9mb 53f 52f
6:50am 1ft 8s 5s 9
mph
1003.1mb 53f 51f
5:50am 1.3ft 7s 5s 9 11 mph 1003.4mb 53f 52f
4:50am 1.3ft 9s 5s 11 13 mph 1003.3mb 53f 52f
3:50am 1.3ft 9s 4s 13 16 mph 1003.2mb 53f 52f
2:50am 1.3ft 7s 4s 11 13 mph 1003.3mb 53f 52f
12:50am 1.3ft 7s 4s 11 13 mph 1003.5mb 53f 53f
Sat 09/20 11:50pm 1.6ft 8s 4s 13
mph
1003.1mb 53f 53f
10:50pm 1.6ft 8s 4s 11 13 mph 1003.2mb 54f 53f
9:50pm 2ft 8s 4s 13 16 mph 1003.2mb 54f 53f
8:50pm 2ft 8s 6s 16
mph
1002.9mb 54f 53f
7:50pm 2ft 8s 7s 11 13 mph 1002.6mb 55f 54f
6:50pm 1.6ft 8s 6s 11 13 mph 1002.4mb 55f 54f
5:50pm 2.5ft 6s 7s 4 7 mph 1002.1mb 55f 54f
4:50pm 2ft 6s 6s 7
mph
1001.8mb 55f 54f
3:50pm 2ft 7s 6s 4
mph
1001.5mb 54f 54f
2:50pm 2ft 8s 6s 2
mph
1001.6mb 53f 54f
1:50pm 2ft 6s 6s 2
mph
1001.4mb 53f 54f
12:50pm 2.5ft 8s 6s 2 4 mph 1001.1mb 53f 53f
11:50am 2.5ft 8s 6s 4 7 mph 1000.9mb 53f 52f
10:50am 2.5ft 9s 5s 7
mph
1000.5mb 53f 52f
9:50am 2.5ft 8s 5s 7
mph
1000.3mb 53f 52f
8:50am 3ft 9s 6s 9 11 mph 999.9mb 53f 52f
6:50am 2.5ft 9s 6s 4 7 mph 999.3mb 53f 53f
5:50am 3.5ft 8s 6s 4 7 mph 999.1mb 53f 53f
4:50am 3ft 8s 6s 4 7 mph 998.8mb 53f 53f
3:50am 3ft 9s 6s 4 7 mph 998.6mb 53f 53f
2:50am 3.5ft 8s 6s 7 9 mph 998.3mb 53f 53f
1:50am 3ft 9s 5s 9 11 mph 998.1mb 53f 53f
12:50am 3ft 9s 5s 9 11 mph 997.9mb 53f 54f
Fri 09/19 11:50pm 3.5ft 6s 5s 11 13 mph 997.7mb 54f 54f
10:50pm 3.5ft 6s 5s 13 16 mph 997.1mb 53f 54f
9:50pm 3.5ft 7s 5s 13 16 mph 996.7mb 53f 54f
8:50pm 4ft 5s 5s 16 18 mph 996mb 53f 54f
7:50pm 4.5ft 9s 5s 16 18 mph 995.3mb 53f 54f
6:50pm 4.5ft 7s 5s 18 20 mph 994.8mb 54f 54f
5:50pm 4.5ft 9s 5s 16 20 mph 994.3mb 54f 54f
4:50pm 4.5ft 5s 5s 18 22 mph 993.9mb 54f 54f
3:50pm 4.5ft 5s 5s 16 20 mph 993.6mb 53f 54f
2:50pm 4ft 10s 5s 13 18 mph 993.5mb 53f 54f
1:50pm 4.5ft 5s 5s 18 22 mph 992.9mb 54f 54f
12:50pm 4.5ft 10s 5s 18 22 mph 992.5mb 54f 53f
11:50am 4.5ft 6s 5s 20 25 mph 991.8mb 53f 53f
10:50am 5ft 6s 5s 20 22 mph 991.4mb 53f 53f
9:50am 5ft 6s 5s 20 25 mph 990.6mb 53f 53f
8:50am 5ft 6s 5s 22 27 mph 989.9mb 53f 53f
7:50am 5ft 5s 5s 22 29 mph 989.3mb 53f 53f
6:50am 4.5ft 6s 5s 22 25 mph 988.8mb 53f 53f
5:50am 4ft 6s 5s 20 25 mph 988.6mb 53f 53f
4:50am 4.5ft 6s 5s 20 22 mph 988mb 53f 53f
3:50am 4.5ft 6s 5s 18 22 mph 987.7mb 53f 53f
2:50am 4.5ft 6s 5s 18 22 mph 987.3mb 54f 53f
1:50am 4.5ft 6s 5s 18 22 mph 986.8mb 54f 54f
12:50am 4.5ft 5s 5s 18 20 mph 986.2mb 54f 54f
Thu 09/18 11:50pm 3.5ft 6s 5s 18 22 mph 985.5mb 54f 55f
10:50pm 3.5ft 5s 5s 13 16 mph 985.3mb 54f 55f
9:50pm 3.5ft 5s 5s 16 18 mph 984.5mb 53f 55f
8:50pm 3ft 5s 5s 13 16 mph 984mb 53f 55f
7:50pm 2.5ft 5s 5s 11 13 mph 983.6mb 53f 55f
6:50pm 3ft 5s 5s 13 16 mph 983.1mb 54f 56f
5:50pm 3ft 5s 5s 13 16 mph 982.9mb 54f 55f
4:50pm 2.5ft 5s 5s 13 16 mph 982.9mb 54f 55f
3:50pm 2ft 6s 5s 9 11 mph 983mb 54f 55f
2:50pm 2ft 7s 5s 4
mph
983.1mb 54f 54f
1:50pm 2ft 7s 5s 2 7 mph 983.2mb 53f 53f
12:50pm 1.6ft 7s 5s 7 9 mph 983.1mb 53f 53f
11:50am 1.6ft 7s 5s 9 11 mph 983.1mb 53f 52f
10:50am 2ft 7s 5s 7 9 mph 983.2mb 53f 52f